sensor_id;sensor_type;location;lat;lon;timestamp;temperature;humidity
14555;DHT22;7364;50.870;4.722;2022-10-13T00:00:39;13.70;99.90
14555;DHT22;7364;50.870;4.722;2022-10-13T00:03:07;13.60;99.90
14555;DHT22;7364;50.870;4.722;2022-10-13T00:05:39;13.60;99.90
14555;DHT22;7364;50.870;4.722;2022-10-13T00:08:07;13.60;99.90
14555;DHT22;7364;50.870;4.722;2022-10-13T00:10:37;13.70;99.90
14555;DHT22;7364;50.870;4.722;2022-10-13T00:13:06;13.60;99.90
14555;DHT22;7364;50.870;4.722;2022-10-13T00:15:38;13.60;99.90
14555;DHT22;7364;50.870;4.722;2022-10-13T00:18:06;13.60;99.90
14555;DHT22;7364;50.870;4.722;2022-10-13T00:20:34;13.50;99.90
14555;DHT22;7364;50.870;4.722;2022-10-13T00:23:01;13.50;99.90
14555;DHT22;7364;50.870;4.722;2022-10-13T00:25:28;13.40;99.90
14555;DHT22;7364;50.870;4.722;2022-10-13T00:27:55;13.40;99.90
14555;DHT22;7364;50.870;4.722;2022-10-13T00:30:22;13.40;99.90
14555;DHT22;7364;50.870;4.722;2022-10-13T00:32:51;13.40;99.90
14555;DHT22;7364;50.870;4.722;2022-10-13T00:35:18;13.40;99.90
14555;DHT22;7364;50.870;4.722;2022-10-13T00:37:45;13.40;99.90
14555;DHT22;7364;50.870;4.722;2022-10-13T00:40:12;13.40;99.90
14555;DHT22;7364;50.870;4.722;2022-10-13T00:42:40;13.50;99.90
14555;DHT22;7364;50.870;4.722;2022-10-13T00:45:20;13.50;99.90
14555;DHT22;7364;50.870;4.722;2022-10-13T00:47:52;13.50;99.90
14555;DHT22;7364;50.870;4.722;2022-10-13T00:50:23;13.40;99.90
14555;DHT22;7364;50.870;4.722;2022-10-13T00:52:53;13.40;99.90
14555;DHT22;7364;50.870;4.722;2022-10-13T00:55:24;13.50;99.90
14555;DHT22;7364;50.870;4.722;2022-10-13T00:57:52;13.60;99.90
14555;DHT22;7364;50.870;4.722;2022-10-13T01:00:23;13.50;99.90
14555;DHT22;7364;50.870;4.722;2022-10-13T01:02:52;13.50;99.90
14555;DHT22;7364;50.870;4.722;2022-10-13T01:05:20;13.40;99.90
14555;DHT22;7364;50.870;4.722;2022-10-13T01:07:48;13.60;99.90
14555;DHT22;7364;50.870;4.722;2022-10-13T01:10:16;13.60;99.90
14555;DHT22;7364;50.870;4.722;2022-10-13T01:12:57;13.70;99.90
14555;DHT22;7364;50.870;4.722;2022-10-13T01:15:29;13.60;99.90
14555;DHT22;7364;50.870;4.722;2022-10-13T01:18:07;13.70;99.90
14555;DHT22;7364;50.870;4.722;2022-10-13T01:20:50;13.80;99.90
14555;DHT22;7364;50.870;4.722;2022-10-13T01:26:49;13.70;99.90
14555;DHT22;7364;50.870;4.722;2022-10-13T01:32:30;13.50;99.90
14555;DHT22;7364;50.870;4.722;2022-10-13T01:35:04;13.60;99.90
14555;DHT22;7364;50.870;4.722;2022-10-13T01:37:38;13.60;99.90
14555;DHT22;7364;50.870;4.722;2022-10-13T01:40:12;13.60;99.90
14555;DHT22;7364;50.870;4.722;2022-10-13T01:42:49;13.60;99.90
14555;DHT22;7364;50.870;4.722;2022-10-13T01:45:22;13.50;99.90
14555;DHT22;7364;50.870;4.722;2022-10-13T01:47:55;13.50;99.90
14555;DHT22;7364;50.870;4.722;2022-10-13T01:50:23;13.60;99.90
14555;DHT22;7364;50.870;4.722;2022-10-13T01:52:52;13.60;99.90
14555;DHT22;7364;50.870;4.722;2022-10-13T01:55:20;13.50;99.90
14555;DHT22;7364;50.870;4.722;2022-10-13T01:57:47;13.60;99.90
14555;DHT22;7364;50.870;4.722;2022-10-13T02:00:16;13.70;99.90
14555;DHT22;7364;50.870;4.722;2022-10-13T02:02:52;13.70;99.90
14555;DHT22;7364;50.870;4.722;2022-10-13T02:05:37;13.70;99.90
14555;DHT22;7364;50.870;4.722;2022-10-13T02:08:12;13.70;99.90
14555;DHT22;7364;50.870;4.722;2022-10-13T02:10:45;13.70;99.90
14555;DHT22;7364;50.870;4.722;2022-10-13T02:13:20;13.60;99.90
14555;DHT22;7364;50.870;4.722;2022-10-13T02:15:51;13.50;99.90
14555;DHT22;7364;50.870;4.722;2022-10-13T02:18:24;13.40;99.90
14555;DHT22;7364;50.870;4.722;2022-10-13T02:20:54;13.40;99.90
14555;DHT22;7364;50.870;4.722;2022-10-13T02:23:22;13.50;99.90
14555;DHT22;7364;50.870;4.722;2022-10-13T02:25:50;13.50;99.90
14555;DHT22;7364;50.870;4.722;2022-10-13T02:28:17;13.50;99.90
14555;DHT22;7364;50.870;4.722;2022-10-13T02:30:45;13.60;99.90
14555;DHT22;7364;50.870;4.722;2022-10-13T02:33:13;13.60;99.90
14555;DHT22;7364;50.870;4.722;2022-10-13T02:35:44;13.50;99.90
14555;DHT22;7364;50.870;4.722;2022-10-13T02:38:12;13.70;99.90
14555;DHT22;7364;50.870;4.722;2022-10-13T02:40:39;13.80;99.90
14555;DHT22;7364;50.870;4.722;2022-10-13T02:43:06;13.80;99.90
14555;DHT22;7364;50.870;4.722;2022-10-13T02:45:34;13.90;99.90
14555;DHT22;7364;50.870;4.722;2022-10-13T02:48:01;13.90;99.90
14555;DHT22;7364;50.870;4.722;2022-10-13T02:50:28;14.00;99.90
14555;DHT22;7364;50.870;4.722;2022-10-13T02:52:55;14.00;99.90
14555;DHT22;7364;50.870;4.722;2022-10-13T02:55:24;13.90;99.90
14555;DHT22;7364;50.870;4.722;2022-10-13T02:57:51;13.80;99.90
14555;DHT22;7364;50.870;4.722;2022-10-13T03:00:19;13.80;99.90
14555;DHT22;7364;50.870;4.722;2022-10-13T03:02:46;13.70;99.90
14555;DHT22;7364;50.870;4.722;2022-10-13T03:05:13;13.60;99.90
14555;DHT22;7364;50.870;4.722;2022-10-13T03:07:40;13.50;99.90
14555;DHT22;7364;50.870;4.722;2022-10-13T03:10:08;13.50;99.90
14555;DHT22;7364;50.870;4.722;2022-10-13T03:12:36;13.40;99.90
14555;DHT22;7364;50.870;4.722;2022-10-13T03:15:04;13.50;99.90
14555;DHT22;7364;50.870;4.722;2022-10-13T03:17:31;13.50;99.90
14555;DHT22;7364;50.870;4.722;2022-10-13T03:19:58;13.40;99.90
14555;DHT22;7364;50.870;4.722;2022-10-13T03:22:25;13.30;99.90
14555;DHT22;7364;50.870;4.722;2022-10-13T03:24:52;13.30;99.90
14555;DHT22;7364;50.870;4.722;2022-10-13T03:27:19;13.20;99.90
14555;DHT22;7364;50.870;4.722;2022-10-13T03:29:48;13.30;99.90
14555;DHT22;7364;50.870;4.722;2022-10-13T03:32:15;13.40;99.90
14555;DHT22;7364;50.870;4.722;2022-10-13T03:34:43;13.40;99.90
14555;DHT22;7364;50.870;4.722;2022-10-13T03:37:10;13.40;99.90
14555;DHT22;7364;50.870;4.722;2022-10-13T03:39:37;13.40;99.90
14555;DHT22;7364;50.870;4.722;2022-10-13T03:42:04;13.30;99.90
14555;DHT22;7364;50.870;4.722;2022-10-13T03:44:32;13.40;99.90
14555;DHT22;7364;50.870;4.722;2022-10-13T03:47:00;13.50;99.90
14555;DHT22;7364;50.870;4.722;2022-10-13T03:49:27;13.40;99.90
14555;DHT22;7364;50.870;4.722;2022-10-13T03:51:54;13.30;99.90
14555;DHT22;7364;50.870;4.722;2022-10-13T03:54:22;13.30;99.90
14555;DHT22;7364;50.870;4.722;2022-10-13T03:56:49;13.30;99.90
14555;DHT22;7364;50.870;4.722;2022-10-13T03:59:16;13.20;99.90
14555;DHT22;7364;50.870;4.722;2022-10-13T04:01:44;13.20;99.90
14555;DHT22;7364;50.870;4.722;2022-10-13T04:04:12;13.10;99.90
14555;DHT22;7364;50.870;4.722;2022-10-13T04:06:39;13.20;99.90
14555;DHT22;7364;50.870;4.722;2022-10-13T04:09:07;13.10;99.90
14555;DHT22;7364;50.870;4.722;2022-10-13T04:11:34;13.20;99.90
14555;DHT22;7364;50.870;4.722;2022-10-13T04:14:01;13.10;99.90
14555;DHT22;7364;50.870;4.722;2022-10-13T04:16:30;13.00;99.90
14555;DHT22;7364;50.870;4.722;2022-10-13T04:18:59;13.00;99.90
14555;DHT22;7364;50.870;4.722;2022-10-13T04:21:29;13.00;99.90
14555;DHT22;7364;50.870;4.722;2022-10-13T04:23:58;13.00;99.90
14555;DHT22;7364;50.870;4.722;2022-10-13T04:26:28;13.00;99.90
14555;DHT22;7364;50.870;4.722;2022-10-13T04:28:56;13.00;99.90
14555;DHT22;7364;50.870;4.722;2022-10-13T04:31:24;13.00;99.90
14555;DHT22;7364;50.870;4.722;2022-10-13T04:33:52;13.00;99.90
14555;DHT22;7364;50.870;4.722;2022-10-13T04:36:21;13.00;99.90
14555;DHT22;7364;50.870;4.722;2022-10-13T04:38:51;13.00;99.90
14555;DHT22;7364;50.870;4.722;2022-10-13T04:41:21;13.10;99.90
14555;DHT22;7364;50.870;4.722;2022-10-13T04:43:49;13.10;99.90
14555;DHT22;7364;50.870;4.722;2022-10-13T04:46:19;13.10;99.90
14555;DHT22;7364;50.870;4.722;2022-10-13T04:49:00;13.20;99.90
14555;DHT22;7364;50.870;4.722;2022-10-13T04:51:27;13.20;99.90
14555;DHT22;7364;50.870;4.722;2022-10-13T04:53:58;13.20;99.90
14555;DHT22;7364;50.870;4.722;2022-10-13T04:56:26;13.20;99.90
14555;DHT22;7364;50.870;4.722;2022-10-13T04:58:53;13.40;99.90
14555;DHT22;7364;50.870;4.722;2022-10-13T05:01:22;13.40;99.90
14555;DHT22;7364;50.870;4.722;2022-10-13T05:03:51;13.40;99.90
14555;DHT22;7364;50.870;4.722;2022-10-13T05:06:20;13.40;99.90
14555;DHT22;7364;50.870;4.722;2022-10-13T05:08:48;13.30;99.90
14555;DHT22;7364;50.870;4.722;2022-10-13T05:11:17;13.30;99.90
14555;DHT22;7364;50.870;4.722;2022-10-13T05:13:45;13.30;99.90
14555;DHT22;7364;50.870;4.722;2022-10-13T05:16:14;13.20;99.90
14555;DHT22;7364;50.870;4.722;2022-10-13T05:18:42;13.30;99.90
14555;DHT22;7364;50.870;4.722;2022-10-13T05:21:10;13.30;99.90
14555;DHT22;7364;50.870;4.722;2022-10-13T05:23:40;13.40;99.90
14555;DHT22;7364;50.870;4.722;2022-10-13T05:26:09;13.40;99.90
14555;DHT22;7364;50.870;4.722;2022-10-13T05:28:39;13.60;99.90
14555;DHT22;7364;50.870;4.722;2022-10-13T05:31:11;13.60;99.90
14555;DHT22;7364;50.870;4.722;2022-10-13T05:33:38;13.60;99.90
14555;DHT22;7364;50.870;4.722;2022-10-13T05:36:07;13.50;99.90
14555;DHT22;7364;50.870;4.722;2022-10-13T05:38:35;13.50;99.90
14555;DHT22;7364;50.870;4.722;2022-10-13T05:41:04;13.50;99.90
14555;DHT22;7364;50.870;4.722;2022-10-13T05:43:32;13.70;99.90
14555;DHT22;7364;50.870;4.722;2022-10-13T05:46:01;13.80;99.90
14555;DHT22;7364;50.870;4.722;2022-10-13T05:48:28;13.70;99.90
14555;DHT22;7364;50.870;4.722;2022-10-13T05:50:59;13.60;99.90
14555;DHT22;7364;50.870;4.722;2022-10-13T05:53:29;13.60;99.90
14555;DHT22;7364;50.870;4.722;2022-10-13T05:56:00;13.80;99.90
14555;DHT22;7364;50.870;4.722;2022-10-13T05:58:32;13.90;99.90
14555;DHT22;7364;50.870;4.722;2022-10-13T06:01:00;13.80;99.90
14555;DHT22;7364;50.870;4.722;2022-10-13T06:03:28;13.60;99.90
14555;DHT22;7364;50.870;4.722;2022-10-13T06:05:55;13.70;99.90
14555;DHT22;7364;50.870;4.722;2022-10-13T06:08:23;13.60;99.90
14555;DHT22;7364;50.870;4.722;2022-10-13T06:10:50;13.50;99.90
14555;DHT22;7364;50.870;4.722;2022-10-13T06:13:17;13.40;99.90
14555;DHT22;7364;50.870;4.722;2022-10-13T06:15:45;13.30;99.90
14555;DHT22;7364;50.870;4.722;2022-10-13T06:18:13;13.20;99.90
14555;DHT22;7364;50.870;4.722;2022-10-13T06:20:43;13.30;99.90
14555;DHT22;7364;50.870;4.722;2022-10-13T06:23:10;13.30;99.90
14555;DHT22;7364;50.870;4.722;2022-10-13T06:25:45;13.30;99.90
14555;DHT22;7364;50.870;4.722;2022-10-13T06:28:12;13.30;99.90
14555;DHT22;7364;50.870;4.722;2022-10-13T06:30:39;13.30;99.90
14555;DHT22;7364;50.870;4.722;2022-10-13T06:33:07;13.30;99.90
14555;DHT22;7364;50.870;4.722;2022-10-13T06:35:36;13.40;99.90
14555;DHT22;7364;50.870;4.722;2022-10-13T06:38:04;13.50;99.90
14555;DHT22;7364;50.870;4.722;2022-10-13T06:40:31;13.50;99.90
14555;DHT22;7364;50.870;4.722;2022-10-13T06:42:59;13.50;99.90
14555;DHT22;7364;50.870;4.722;2022-10-13T06:45:26;13.60;99.90
14555;DHT22;7364;50.870;4.722;2022-10-13T06:47:53;13.80;99.90
14555;DHT22;7364;50.870;4.722;2022-10-13T06:50:21;13.80;99.90
14555;DHT22;7364;50.870;4.722;2022-10-13T06:52:49;13.90;99.90
14555;DHT22;7364;50.870;4.722;2022-10-13T06:55:17;14.00;99.90
14555;DHT22;7364;50.870;4.722;2022-10-13T06:57:44;14.10;99.90
14555;DHT22;7364;50.870;4.722;2022-10-13T07:00:11;14.30;99.90
14555;DHT22;7364;50.870;4.722;2022-10-13T07:02:39;14.30;99.90
14555;DHT22;7364;50.870;4.722;2022-10-13T07:05:07;14.30;99.90
14555;DHT22;7364;50.870;4.722;2022-10-13T07:07:34;14.30;99.90
14555;DHT22;7364;50.870;4.722;2022-10-13T07:10:03;14.10;99.90
14555;DHT22;7364;50.870;4.722;2022-10-13T07:12:30;13.80;99.90
14555;DHT22;7364;50.870;4.722;2022-10-13T07:14:57;13.70;99.90
14555;DHT22;7364;50.870;4.722;2022-10-13T07:17:25;13.70;99.90
14555;DHT22;7364;50.870;4.722;2022-10-13T07:19:52;13.80;99.90
14555;DHT22;7364;50.870;4.722;2022-10-13T07:22:19;13.70;99.90
14555;DHT22;7364;50.870;4.722;2022-10-13T07:24:46;13.90;99.90
14555;DHT22;7364;50.870;4.722;2022-10-13T07:27:15;13.90;99.90
14555;DHT22;7364;50.870;4.722;2022-10-13T07:29:44;13.90;99.90
14555;DHT22;7364;50.870;4.722;2022-10-13T07:32:11;14.20;99.90
14555;DHT22;7364;50.870;4.722;2022-10-13T07:34:38;14.30;99.90
14555;DHT22;7364;50.870;4.722;2022-10-13T07:37:06;14.10;99.90
14555;DHT22;7364;50.870;4.722;2022-10-13T07:39:33;14.30;99.90
14555;DHT22;7364;50.870;4.722;2022-10-13T07:42:00;14.30;99.90
14555;DHT22;7364;50.870;4.722;2022-10-13T07:44:29;14.20;99.90
14555;DHT22;7364;50.870;4.722;2022-10-13T07:46:56;14.30;99.90
14555;DHT22;7364;50.870;4.722;2022-10-13T07:49:23;14.40;99.90
14555;DHT22;7364;50.870;4.722;2022-10-13T07:51:50;14.40;99.90
14555;DHT22;7364;50.870;4.722;2022-10-13T07:54:18;14.60;99.90
14555;DHT22;7364;50.870;4.722;2022-10-13T07:56:45;14.50;99.90
14555;DHT22;7364;50.870;4.722;2022-10-13T07:59:12;14.60;99.90
14555;DHT22;7364;50.870;4.722;2022-10-13T08:01:40;14.60;99.90
14555;DHT22;7364;50.870;4.722;2022-10-13T08:04:08;14.30;99.90
14555;DHT22;7364;50.870;4.722;2022-10-13T08:06:35;14.20;99.90
14555;DHT22;7364;50.870;4.722;2022-10-13T08:09:03;14.10;99.90
14555;DHT22;7364;50.870;4.722;2022-10-13T08:11:30;13.90;99.90
14555;DHT22;7364;50.870;4.722;2022-10-13T08:13:57;13.90;99.90
14555;DHT22;7364;50.870;4.722;2022-10-13T08:16:26;14.00;99.90
14555;DHT22;7364;50.870;4.722;2022-10-13T08:18:55;14.10;99.90
14555;DHT22;7364;50.870;4.722;2022-10-13T08:21:23;14.10;99.90
14555;DHT22;7364;50.870;4.722;2022-10-13T08:23:50;14.10;99.90
14555;DHT22;7364;50.870;4.722;2022-10-13T08:26:19;14.10;99.90
14555;DHT22;7364;50.870;4.722;2022-10-13T08:28:48;14.20;99.90
14555;DHT22;7364;50.870;4.722;2022-10-13T08:31:15;14.30;99.90
14555;DHT22;7364;50.870;4.722;2022-10-13T08:33:43;14.40;99.90
14555;DHT22;7364;50.870;4.722;2022-10-13T08:36:14;14.30;99.90
14555;DHT22;7364;50.870;4.722;2022-10-13T08:38:42;14.50;99.90
14555;DHT22;7364;50.870;4.722;2022-10-13T08:41:17;14.50;99.90
14555;DHT22;7364;50.870;4.722;2022-10-13T08:43:47;14.40;99.90
14555;DHT22;7364;50.870;4.722;2022-10-13T08:46:19;14.30;99.90
14555;DHT22;7364;50.870;4.722;2022-10-13T08:48:50;14.20;99.90
14555;DHT22;7364;50.870;4.722;2022-10-13T08:51:19;14.30;99.90
14555;DHT22;7364;50.870;4.722;2022-10-13T08:53:46;14.20;99.90
14555;DHT22;7364;50.870;4.722;2022-10-13T08:56:18;14.20;99.90
14555;DHT22;7364;50.870;4.722;2022-10-13T08:58:50;14.10;99.90
14555;DHT22;7364;50.870;4.722;2022-10-13T09:01:20;14.10;99.90
14555;DHT22;7364;50.870;4.722;2022-10-13T09:03:53;14.10;99.90
14555;DHT22;7364;50.870;4.722;2022-10-13T09:06:24;14.30;99.90
14555;DHT22;7364;50.870;4.722;2022-10-13T09:08:55;14.60;99.90
14555;DHT22;7364;50.870;4.722;2022-10-13T09:11:26;14.50;99.90
14555;DHT22;7364;50.870;4.722;2022-10-13T09:13:57;14.50;99.90
14555;DHT22;7364;50.870;4.722;2022-10-13T09:16:29;14.60;99.90
14555;DHT22;7364;50.870;4.722;2022-10-13T09:19:14;14.60;99.90
14555;DHT22;7364;50.870;4.722;2022-10-13T09:21:45;14.60;99.90
14555;DHT22;7364;50.870;4.722;2022-10-13T09:24:15;14.50;99.90
14555;DHT22;7364;50.870;4.722;2022-10-13T09:26:45;14.70;99.90
14555;DHT22;7364;50.870;4.722;2022-10-13T09:29:17;14.60;99.90
14555;DHT22;7364;50.870;4.722;2022-10-13T09:31:44;14.60;99.90
14555;DHT22;7364;50.870;4.722;2022-10-13T09:34:20;14.50;99.90
14555;DHT22;7364;50.870;4.722;2022-10-13T09:36:57;14.70;99.90
14555;DHT22;7364;50.870;4.722;2022-10-13T09:39:25;14.80;99.90
14555;DHT22;7364;50.870;4.722;2022-10-13T09:42:16;14.80;99.90
14555;DHT22;7364;50.870;4.722;2022-10-13T09:44:44;14.80;99.90
14555;DHT22;7364;50.870;4.722;2022-10-13T09:47:17;14.70;99.90
14555;DHT22;7364;50.870;4.722;2022-10-13T09:49:45;14.80;99.90
14555;DHT22;7364;50.870;4.722;2022-10-13T09:52:25;14.80;99.90
14555;DHT22;7364;50.870;4.722;2022-10-13T09:54:56;14.80;99.90
14555;DHT22;7364;50.870;4.722;2022-10-13T09:57:33;14.90;99.90
14555;DHT22;7364;50.870;4.722;2022-10-13T10:00:10;15.00;99.90
14555;DHT22;7364;50.870;4.722;2022-10-13T10:02:47;14.90;99.90
14555;DHT22;7364;50.870;4.722;2022-10-13T10:05:22;14.90;99.90
14555;DHT22;7364;50.870;4.722;2022-10-13T10:07:52;14.90;99.90
14555;DHT22;7364;50.870;4.722;2022-10-13T10:10:28;15.10;99.90
14555;DHT22;7364;50.870;4.722;2022-10-13T10:12:59;15.30;99.90
14555;DHT22;7364;50.870;4.722;2022-10-13T10:15:35;15.40;99.90
14555;DHT22;7364;50.870;4.722;2022-10-13T10:18:07;15.60;99.90
14555;DHT22;7364;50.870;4.722;2022-10-13T10:20:53;15.70;99.90
14555;DHT22;7364;50.870;4.722;2022-10-13T10:23:28;15.80;99.90
14555;DHT22;7364;50.870;4.722;2022-10-13T10:26:03;15.90;99.90
14555;DHT22;7364;50.870;4.722;2022-10-13T10:28:56;16.20;99.90
14555;DHT22;7364;50.870;4.722;2022-10-13T10:31:42;16.20;99.90
14555;DHT22;7364;50.870;4.722;2022-10-13T10:34:32;16.30;99.90
14555;DHT22;7364;50.870;4.722;2022-10-13T10:37:14;16.50;99.90
14555;DHT22;7364;50.870;4.722;2022-10-13T10:39:47;16.90;99.90
14555;DHT22;7364;50.870;4.722;2022-10-13T10:42:31;17.10;99.90
14555;DHT22;7364;50.870;4.722;2022-10-13T10:45:13;17.20;99.90
14555;DHT22;7364;50.870;4.722;2022-10-13T10:47:46;17.40;99.90
14555;DHT22;7364;50.870;4.722;2022-10-13T10:50:17;17.60;99.90
14555;DHT22;7364;50.870;4.722;2022-10-13T10:52:51;17.40;99.90
14555;DHT22;7364;50.870;4.722;2022-10-13T10:55:24;17.50;99.90
14555;DHT22;7364;50.870;4.722;2022-10-13T10:57:59;17.30;99.90
14555;DHT22;7364;50.870;4.722;2022-10-13T11:00:38;17.30;99.90
14555;DHT22;7364;50.870;4.722;2022-10-13T11:03:17;17.40;99.90
14555;DHT22;7364;50.870;4.722;2022-10-13T11:06:04;17.40;99.90
14555;DHT22;7364;50.870;4.722;2022-10-13T11:08:46;17.20;99.90
14555;DHT22;7364;50.870;4.722;2022-10-13T11:11:40;16.90;99.90
14555;DHT22;7364;50.870;4.722;2022-10-13T11:14:27;16.70;99.90
14555;DHT22;7364;50.870;4.722;2022-10-13T11:17:22;16.60;99.90
14555;DHT22;7364;50.870;4.722;2022-10-13T11:19:53;16.60;99.90
14555;DHT22;7364;50.870;4.722;2022-10-13T11:22:23;16.40;99.90
14555;DHT22;7364;50.870;4.722;2022-10-13T11:25:06;16.20;99.90
14555;DHT22;7364;50.870;4.722;2022-10-13T11:27:51;16.00;99.90
14555;DHT22;7364;50.870;4.722;2022-10-13T11:30:44;16.00;99.90
14555;DHT22;7364;50.870;4.722;2022-10-13T11:33:51;15.80;99.90
14555;DHT22;7364;50.870;4.722;2022-10-13T11:36:43;15.40;99.90
14555;DHT22;7364;50.870;4.722;2022-10-13T11:39:40;15.50;99.90
14555;DHT22;7364;50.870;4.722;2022-10-13T11:42:23;15.50;99.90
14555;DHT22;7364;50.870;4.722;2022-10-13T11:44:58;15.40;99.90
14555;DHT22;7364;50.870;4.722;2022-10-13T11:50:34;15.10;99.90
14555;DHT22;7364;50.870;4.722;2022-10-13T11:53:12;15.10;99.90
14555;DHT22;7364;50.870;4.722;2022-10-13T11:55:47;15.10;99.90
14555;DHT22;7364;50.870;4.722;2022-10-13T11:58:18;15.10;99.90
14555;DHT22;7364;50.870;4.722;2022-10-13T12:00:54;15.10;99.90
14555;DHT22;7364;50.870;4.722;2022-10-13T12:03:25;15.10;99.90
14555;DHT22;7364;50.870;4.722;2022-10-13T12:05:57;15.00;99.90
14555;DHT22;7364;50.870;4.722;2022-10-13T12:08:26;15.10;99.90
14555;DHT22;7364;50.870;4.722;2022-10-13T12:10:55;15.20;99.90
14555;DHT22;7364;50.870;4.722;2022-10-13T12:13:26;15.50;99.90
14555;DHT22;7364;50.870;4.722;2022-10-13T12:16:00;15.70;99.90
14555;DHT22;7364;50.870;4.722;2022-10-13T12:18:30;15.70;99.90
14555;DHT22;7364;50.870;4.722;2022-10-13T12:21:01;15.90;99.90
14555;DHT22;7364;50.870;4.722;2022-10-13T12:23:31;15.80;99.90
14555;DHT22;7364;50.870;4.722;2022-10-13T12:25:58;16.00;99.90
14555;DHT22;7364;50.870;4.722;2022-10-13T12:28:28;16.00;99.90
14555;DHT22;7364;50.870;4.722;2022-10-13T12:30:57;16.00;99.90
14555;DHT22;7364;50.870;4.722;2022-10-13T12:33:29;16.00;99.90
14555;DHT22;7364;50.870;4.722;2022-10-13T12:36:11;16.10;99.90
14555;DHT22;7364;50.870;4.722;2022-10-13T12:38:45;16.40;99.90
14555;DHT22;7364;50.870;4.722;2022-10-13T12:41:15;16.70;99.90
14555;DHT22;7364;50.870;4.722;2022-10-13T12:43:44;16.50;99.90
14555;DHT22;7364;50.870;4.722;2022-10-13T12:46:12;16.60;99.90
14555;DHT22;7364;50.870;4.722;2022-10-13T12:48:40;16.40;99.90
14555;DHT22;7364;50.870;4.722;2022-10-13T12:51:18;16.40;99.90
14555;DHT22;7364;50.870;4.722;2022-10-13T12:53:48;16.30;99.90
14555;DHT22;7364;50.870;4.722;2022-10-13T12:56:25;16.60;99.90
14555;DHT22;7364;50.870;4.722;2022-10-13T12:58:56;16.70;99.90
14555;DHT22;7364;50.870;4.722;2022-10-13T13:01:29;16.70;99.90
14555;DHT22;7364;50.870;4.722;2022-10-13T13:04:01;16.80;99.90
14555;DHT22;7364;50.870;4.722;2022-10-13T13:06:53;16.60;99.90
14555;DHT22;7364;50.870;4.722;2022-10-13T13:09:23;16.50;99.90
14555;DHT22;7364;50.870;4.722;2022-10-13T13:12:18;16.70;99.90
14555;DHT22;7364;50.870;4.722;2022-10-13T13:14:47;16.80;99.90
14555;DHT22;7364;50.870;4.722;2022-10-13T13:17:22;16.90;99.90
14555;DHT22;7364;50.870;4.722;2022-10-13T13:19:53;16.90;99.90
14555;DHT22;7364;50.870;4.722;2022-10-13T13:22:22;16.60;99.90
14555;DHT22;7364;50.870;4.722;2022-10-13T13:24:50;16.60;99.90
14555;DHT22;7364;50.870;4.722;2022-10-13T13:27:24;16.60;99.90
14555;DHT22;7364;50.870;4.722;2022-10-13T13:29:52;16.50;99.90
14555;DHT22;7364;50.870;4.722;2022-10-13T13:32:20;16.50;99.90
14555;DHT22;7364;50.870;4.722;2022-10-13T13:34:48;16.40;99.90
14555;DHT22;7364;50.870;4.722;2022-10-13T13:37:23;16.40;99.90
14555;DHT22;7364;50.870;4.722;2022-10-13T13:39:52;16.30;99.90
14555;DHT22;7364;50.870;4.722;2022-10-13T13:42:19;16.20;99.90
14555;DHT22;7364;50.870;4.722;2022-10-13T13:44:47;16.20;99.90
14555;DHT22;7364;50.870;4.722;2022-10-13T13:47:18;16.10;99.90
14555;DHT22;7364;50.870;4.722;2022-10-13T13:49:47;16.20;99.90
14555;DHT22;7364;50.870;4.722;2022-10-13T13:52:16;16.10;99.90
14555;DHT22;7364;50.870;4.722;2022-10-13T13:54:44;16.10;99.90
14555;DHT22;7364;50.870;4.722;2022-10-13T13:57:13;16.20;99.90
14555;DHT22;7364;50.870;4.722;2022-10-13T13:59:41;16.20;99.90
14555;DHT22;7364;50.870;4.722;2022-10-13T14:02:15;16.10;99.90
14555;DHT22;7364;50.870;4.722;2022-10-13T14:04:42;15.80;99.90
14555;DHT22;7364;50.870;4.722;2022-10-13T14:07:10;15.60;99.90
14555;DHT22;7364;50.870;4.722;2022-10-13T14:09:39;15.40;99.90
14555;DHT22;7364;50.870;4.722;2022-10-13T14:12:06;15.20;99.90
14555;DHT22;7364;50.870;4.722;2022-10-13T14:14:33;15.20;99.90
14555;DHT22;7364;50.870;4.722;2022-10-13T14:17:00;15.20;99.90
14555;DHT22;7364;50.870;4.722;2022-10-13T14:19:28;15.20;99.90
14555;DHT22;7364;50.870;4.722;2022-10-13T14:21:56;15.20;99.90
14555;DHT22;7364;50.870;4.722;2022-10-13T14:24:23;15.20;99.90
14555;DHT22;7364;50.870;4.722;2022-10-13T14:26:51;15.20;99.90
14555;DHT22;7364;50.870;4.722;2022-10-13T14:29:19;15.10;99.90
14555;DHT22;7364;50.870;4.722;2022-10-13T14:31:46;15.00;99.90
14555;DHT22;7364;50.870;4.722;2022-10-13T14:34:14;15.00;99.90
14555;DHT22;7364;50.870;4.722;2022-10-13T14:36:47;14.90;99.90
14555;DHT22;7364;50.870;4.722;2022-10-13T14:39:23;14.90;99.90
14555;DHT22;7364;50.870;4.722;2022-10-13T14:42:05;14.90;99.90
14555;DHT22;7364;50.870;4.722;2022-10-13T14:44:33;15.00;99.90
14555;DHT22;7364;50.870;4.722;2022-10-13T14:47:00;15.10;99.90
14555;DHT22;7364;50.870;4.722;2022-10-13T14:49:29;15.40;99.90
14555;DHT22;7364;50.870;4.722;2022-10-13T14:51:58;15.80;99.90
14555;DHT22;7364;50.870;4.722;2022-10-13T14:54:26;15.70;99.90
14555;DHT22;7364;50.870;4.722;2022-10-13T14:56:54;15.70;99.90
14555;DHT22;7364;50.870;4.722;2022-10-13T14:59:23;15.70;99.90
14555;DHT22;7364;50.870;4.722;2022-10-13T15:01:50;15.70;99.90
14555;DHT22;7364;50.870;4.722;2022-10-13T15:04:17;16.10;99.90
14555;DHT22;7364;50.870;4.722;2022-10-13T15:06:44;16.50;99.90
14555;DHT22;7364;50.870;4.722;2022-10-13T15:09:11;16.40;99.90
14555;DHT22;7364;50.870;4.722;2022-10-13T15:11:38;16.40;99.90
14555;DHT22;7364;50.870;4.722;2022-10-13T15:14:06;16.30;99.90
14555;DHT22;7364;50.870;4.722;2022-10-13T15:16:47;16.40;99.90
14555;DHT22;7364;50.870;4.722;2022-10-13T15:19:23;16.20;99.90
14555;DHT22;7364;50.870;4.722;2022-10-13T15:21:51;16.30;99.90
14555;DHT22;7364;50.870;4.722;2022-10-13T15:24:25;16.30;99.90
14555;DHT22;7364;50.870;4.722;2022-10-13T15:26:55;16.00;99.90
14555;DHT22;7364;50.870;4.722;2022-10-13T15:29:23;15.90;99.90
14555;DHT22;7364;50.870;4.722;2022-10-13T15:31:51;16.00;99.90
14555;DHT22;7364;50.870;4.722;2022-10-13T15:34:21;16.10;99.90
14555;DHT22;7364;50.870;4.722;2022-10-13T15:36:48;16.10;99.90
14555;DHT22;7364;50.870;4.722;2022-10-13T15:39:15;15.90;99.90
14555;DHT22;7364;50.870;4.722;2022-10-13T15:41:50;15.90;99.90
14555;DHT22;7364;50.870;4.722;2022-10-13T15:44:24;16.10;99.90
14555;DHT22;7364;50.870;4.722;2022-10-13T15:46:53;16.10;99.90
14555;DHT22;7364;50.870;4.722;2022-10-13T15:49:25;16.00;99.90
14555;DHT22;7364;50.870;4.722;2022-10-13T15:51:53;16.20;99.90
14555;DHT22;7364;50.870;4.722;2022-10-13T15:54:21;16.20;99.90
14555;DHT22;7364;50.870;4.722;2022-10-13T15:56:49;16.10;99.90
14555;DHT22;7364;50.870;4.722;2022-10-13T15:59:27;16.20;99.90
14555;DHT22;7364;50.870;4.722;2022-10-13T16:02:13;16.30;99.90
14555;DHT22;7364;50.870;4.722;2022-10-13T16:04:46;16.20;99.90
14555;DHT22;7364;50.870;4.722;2022-10-13T16:07:14;16.20;99.90
14555;DHT22;7364;50.870;4.722;2022-10-13T16:09:46;16.30;99.90
14555;DHT22;7364;50.870;4.722;2022-10-13T16:12:21;16.40;99.90
14555;DHT22;7364;50.870;4.722;2022-10-13T16:14:52;16.50;99.90
14555;DHT22;7364;50.870;4.722;2022-10-13T16:17:22;16.50;99.90